Time;durP1;ratioP1;P1;durP2;ratioP2;P2;SDS_P1;SDS_P2;PMS_P1;PMS_P2;Temp;Humidity;BMP_temperature;BMP_pressure;BME280_temperature;BME280_humidity;BME280_pressure;Samples;Min_cycle;Max_cycle;Signal;HPM_P1;HPM_P2
2022/12/08 01:45:01;;;;;;;;;52.75;42.75;;;;;;;;5950598;39;10000783;-58
2022/12/08 01:51:06;;;;;;;;;61.00;48.50;;;;;;;;6490861;31;8856;-59
2022/12/08 01:57:19;;;;;;;;;67.75;52.00;;;;;;;;6491787;39;9026;-59
2022/12/08 02:03:28;;;;;;;;;61.00;47.50;;;;;;;;6489514;39;8910;-60
2022/12/08 02:09:34;;;;;;;;;62.00;49.75;;;;;;;;6490905;31;8814;-59
2022/12/08 02:15:55;;;;;;;;;65.25;50.25;;;;;;;;6490737;47;9029;-59
2022/12/08 02:22:15;;;;;;;;;59.00;49.50;;;;;;;;6491049;39;9486;-58
2022/12/08 02:28:44;;;;;;;;;56.00;46.00;;;;;;;;6493315;39;8882;-59
2022/12/08 02:35:15;;;;;;;;;58.25;45.50;;;;;;;;6493115;31;8861;-59
2022/12/08 02:41:46;;;;;;;;;73.00;51.00;;;;;;;;6493717;31;8918;-59
2022/12/08 02:47:48;;;;;;;;;70.25;52.25;;;;;;;;6492620;39;8928;-59
2022/12/08 02:53:54;;;;;;;;;68.75;52.75;;;;;;;;6492600;39;8894;-59
2022/12/08 03:00:07;;;;;;;;;64.25;52.75;;;;;;;;6492319;39;8913;-58
2022/12/08 03:06:22;;;;;;;;;74.75;59.75;;;;;;;;6493204;39;8995;-59
2022/12/08 03:12:35;;;;;;;;;74.50;58.00;;;;;;;;6492338;46;8903;-60
2022/12/08 03:18:46;;;;;;;;;70.00;51.25;;;;;;;;6492075;31;8948;-59
2022/12/08 03:24:48;;;;;;;;;61.50;50.50;;;;;;;;6492733;39;8869;-59
2022/12/08 03:30:54;;;;;;;;;57.50;44.50;;;;;;;;6493052;39;8953;-59
2022/12/08 03:37:00;;;;;;;;;62.00;50.75;;;;;;;;6492350;39;8806;-59
2022/12/08 03:43:02;;;;;;;;;45.00;33.25;;;;;;;;6492235;39;8853;-59
2022/12/08 03:49:04;;;;;;;;;58.50;46.50;;;;;;;;6492577;31;8837;-60
2022/12/08 03:55:08;;;;;;;;;65.25;50.50;;;;;;;;6491871;39;9535;-59
2022/12/08 04:01:11;;;;;;;;;64.00;49.00;;;;;;;;6491742;39;9011;-59
2022/12/08 04:07:13;;;;;;;;;72.67;56.00;;;;;;;;6400888;39;5001211;-59
2022/12/08 04:13:16;;;;;;;;;63.00;53.00;;;;;;;;6536333;31;8911;-59
2022/12/08 04:19:18;;;;;;;;;79.75;58.00;;;;;;;;6490014;39;8861;-59
2022/12/08 04:25:20;;;;;;;;;76.25;57.75;;;;;;;;6491186;31;8892;-58
2022/12/08 04:31:23;;;;;;;;;84.75;58.50;;;;;;;;6488750;46;8980;-58
2022/12/08 04:37:26;;;;;;;;;73.50;56.75;;;;;;;;6490971;46;9997;-60
2022/12/08 04:43:29;;;;;;;;;73.00;55.75;;;;;;;;6490223;46;8854;-58
2022/12/08 04:49:31;;;;;;;;;71.75;56.25;;;;;;;;6489670;46;8881;-60
2022/12/08 04:55:33;;;;;;;;;67.25;54.25;;;;;;;;6491018;31;8882;-59
2022/12/08 05:01:42;;;;;;;;;57.00;46.75;;;;;;;;6474340;39;9050;-60
2022/12/08 05:07:44;;;;;;;;;76.00;56.75;;;;;;;;6489045;46;8926;-60
2022/12/08 05:13:48;;;;;;;;;67.00;50.00;;;;;;;;6491287;31;9035;-60
2022/12/08 05:19:51;;;;;;;;;73.75;55.75;;;;;;;;6492895;31;8835;-59
2022/12/08 05:25:55;;;;;;;;;69.00;54.00;;;;;;;;6490997;39;8975;-59
2022/12/08 05:31:57;;;;;;;;;79.25;58.00;;;;;;;;6489816;31;9036;-60
2022/12/08 05:37:59;;;;;;;;;77.75;58.00;;;;;;;;6490113;39;8948;-59
2022/12/08 05:44:01;;;;;;;;;73.00;57.00;;;;;;;;6491685;31;8955;-59
2022/12/08 05:50:04;;;;;;;;;75.50;56.50;;;;;;;;6491204;47;8879;-60
2022/12/08 05:56:08;;;;;;;;;70.75;55.25;;;;;;;;6489791;47;9110;-59
2022/12/08 06:02:14;;;;;;;;;65.00;54.50;;;;;;;;6491044;39;8970;-59
2022/12/08 06:08:17;;;;;;;;;75.75;58.25;;;;;;;;6491911;39;9190;-58
2022/12/08 06:14:19;;;;;;;;;67.00;52.75;;;;;;;;6492128;46;8889;-59
2022/12/08 06:20:21;;;;;;;;;79.25;60.00;;;;;;;;6493927;39;8836;-60
2022/12/08 06:26:24;;;;;;;;;68.25;54.00;;;;;;;;6492735;31;8852;-60
2022/12/08 06:32:26;;;;;;;;;64.25;49.00;;;;;;;;6490620;46;8911;-63
2022/12/08 06:38:29;;;;;;;;;78.00;58.50;;;;;;;;6492416;39;8971;-62
2022/12/08 06:44:33;;;;;;;;;75.75;59.50;;;;;;;;6492559;39;8931;-59
2022/12/08 06:50:39;;;;;;;;;69.75;54.00;;;;;;;;6492526;31;8922;-58
2022/12/08 06:56:45;;;;;;;;;71.75;56.50;;;;;;;;6492100;39;8934;-59
2022/12/08 07:02:47;;;;;;;;;76.75;58.50;;;;;;;;6491786;39;8940;-61
2022/12/08 07:08:50;;;;;;;;;77.00;57.00;;;;;;;;6493270;39;8964;-59
2022/12/08 07:14:52;;;;;;;;;60.00;46.50;;;;;;;;6491544;39;8874;-61
2022/12/08 07:21:01;;;;;;;;;62.75;50.75;;;;;;;;6493754;31;8831;-58
2022/12/08 07:27:05;;;;;;;;;69.00;54.50;;;;;;;;6487958;39;9003;-61
2022/12/08 07:33:11;;;;;;;;;67.00;50.25;;;;;;;;6490338;46;8907;-60
2022/12/08 07:39:17;;;;;;;;;71.25;53.00;;;;;;;;6490786;39;8998;-60
2022/12/08 07:45:21;;;;;;;;;69.25;53.25;;;;;;;;6490755;39;8910;-58
2022/12/08 07:51:33;;;;;;;;;63.75;49.50;;;;;;;;6489092;39;9041;-58
2022/12/08 07:57:36;;;;;;;;;56.50;48.75;;;;;;;;6489277;39;8906;-60
2022/12/08 08:03:38;;;;;;;;;79.25;61.50;;;;;;;;6489949;31;9041;-63
2022/12/08 08:09:44;;;;;;;;;68.25;50.25;;;;;;;;6489834;31;8932;-60
2022/12/08 08:15:49;;;;;;;;;70.50;52.75;;;;;;;;6490782;31;8906;-59
2022/12/08 08:21:52;;;;;;;;;72.25;53.50;;;;;;;;6489586;31;9359;-60
2022/12/08 08:27:55;;;;;;;;;64.00;50.25;;;;;;;;6489893;39;8977;-59
2022/12/08 08:34:03;;;;;;;;;59.75;49.50;;;;;;;;6488590;46;9021;-60
2022/12/08 08:40:06;;;;;;;;;50.50;42.00;;;;;;;;5768620;36;10001237;-59
2022/12/08 08:46:10;;;;;;;;;63.75;48.50;;;;;;;;6489049;46;12514;-60
2022/12/08 08:52:14;;;;;;;;;62.75;50.50;;;;;;;;6488068;39;9022;-60
2022/12/08 08:58:17;;;;;;;;;64.00;51.25;;;;;;;;6489719;31;8967;-59
2022/12/08 09:04:21;;;;;;;;;70.25;54.25;;;;;;;;6489239;31;8947;-59
2022/12/08 09:10:23;;;;;;;;;70.75;54.75;;;;;;;;6489197;31;9003;-59
2022/12/08 09:16:27;;;;;;;;;65.25;53.50;;;;;;;;6488861;46;8906;-61
2022/12/08 09:22:33;;;;;;;;;64.75;49.50;;;;;;;;6488543;39;8942;-61
2022/12/08 21:07:34;;;;;;;;;44.50;41.00;;;;;;;;6130935;39;10000776;-60
2022/12/08 21:13:37;;;;;;;;;59.00;47.00;;;;;;;;6490432;39;8859;-60
2022/12/08 21:19:39;;;;;;;;;52.50;46.75;;;;;;;;6491324;31;8848;-59
2022/12/08 21:25:45;;;;;;;;;63.50;48.50;;;;;;;;6491000;39;8922;-58
2022/12/08 21:31:48;;;;;;;;;64.25;51.50;;;;;;;;6490723;39;8839;-60
2022/12/08 21:37:52;;;;;;;;;59.25;49.50;;;;;;;;6490951;31;8842;-59
2022/12/08 21:43:55;;;;;;;;;58.50;48.25;;;;;;;;6489870;31;9007;-59
2022/12/08 21:49:58;;;;;;;;;52.00;44.50;;;;;;;;6489650;46;8862;-58
2022/12/08 21:56:00;;;;;;;;;53.50;46.25;;;;;;;;6489769;47;8919;-60
2022/12/08 22:02:06;;;;;;;;;59.50;44.50;;;;;;;;6489074;31;9069;-60
2022/12/08 22:08:12;;;;;;;;;56.75;45.50;;;;;;;;6488805;47;8852;-60
2022/12/08 22:14:17;;;;;;;;;50.50;43.75;;;;;;;;6488714;31;8870;-60
2022/12/08 22:20:20;;;;;;;;;64.75;46.75;;;;;;;;6489306;39;8914;-59
2022/12/08 22:26:23;;;;;;;;;51.25;46.25;;;;;;;;6488437;31;8934;-59
2022/12/08 22:32:26;;;;;;;;;59.25;44.25;;;;;;;;6488399;47;8859;-60
2022/12/08 22:38:32;;;;;;;;;50.25;43.50;;;;;;;;6488996;39;8835;-61
2022/12/08 22:44:34;;;;;;;;;54.25;42.00;;;;;;;;6489364;46;8911;-60
2022/12/08 22:50:37;;;;;;;;;46.00;37.00;;;;;;;;6490130;46;8875;-59
2022/12/08 22:56:39;;;;;;;;;49.25;40.25;;;;;;;;6490274;39;8892;-59
2022/12/08 23:02:44;;;;;;;;;47.00;41.50;;;;;;;;6490628;39;8997;-60
2022/12/08 23:08:46;;;;;;;;;48.50;39.50;;;;;;;;6490040;39;8986;-60
2022/12/08 23:14:50;;;;;;;;;47.00;41.75;;;;;;;;6489170;46;8914;-59
2022/12/08 23:20:52;;;;;;;;;53.25;42.00;;;;;;;;6490416;39;8895;-58
2022/12/08 23:26:55;;;;;;;;;50.25;43.25;;;;;;;;6490198;39;9066;-59
2022/12/08 23:32:58;;;;;;;;;45.50;35.75;;;;;;;;6490512;39;8832;-61
2022/12/08 23:39:00;;;;;;;;;43.25;33.25;;;;;;;;6490203;39;8839;-58
2022/12/08 23:45:07;;;;;;;;;44.00;37.00;;;;;;;;6489304;39;8910;-59
2022/12/08 23:51:10;;;;;;;;;50.25;39.25;;;;;;;;6490515;31;8846;-58
2022/12/08 23:57:13;;;;;;;;;54.25;41.75;;;;;;;;6489394;31;8922;-60
